aviador You're here:

UKLL Decoded Metar

LVOV in UKRAINE
Report Time2018-05-28 07:30:00
UTC Time2018-05-28 08:05:03
Flight Rules vfr VFR
Wind120° at 8 kt
W.Decomp.*RWY 13: 7.8 kt HW 1.8 kt LCW
W.Rank120° ranks 10
Current wind is above 120° avg. (6.6)
Visibility9999 m
Phenomena:N/A
Clouds:N/A
Expected CloudBase > 6,000 ft AGL from Temp-Dew spread
CeilingNone
Temp22°C (ISA +9)
Dew Point07°C (38% RH)
AAT18.4°C
QNH1025 hPa
Density Alt1,864 ft
Elevation1,066 ft
Report Wrong Elevation
Raw Report
METAR UKLL 280730Z 12004MPS 090V170 CAVOK 22/07 Q1025 R13/D NOSIG=

Extra information for UKLL:More info

Metar Taf Metar & Taf Last 4 Metars F.Rules Stats Wind Profile Meteogram Temp Stats Airport Information Weather charts Add Link Nearby VenuesMetar ALERT Operation Metar Decoded Social comments